Time;durP1;ratioP1;P1;durP2;ratioP2;P2;SDS_P1;SDS_P2;PMS_P1;PMS_P2;Temp;Humidity;BMP_temperature;BMP_pressure;BME280_temperature;BME280_humidity;BME280_pressure;Samples;Min_cycle;Max_cycle;Signal;HPM_P1;HPM_P2
2022/05/27 00:02:00;;;;;;;17.00;9.68;;;;;;;17.47;74.63;101148.69;5103122;27;20048;-70
2022/05/27 00:04:27;;;;;;;17.55;10.57;;;;;;;17.35;75.84;101140.78;5103802;28;20067;-71
2022/05/27 00:06:54;;;;;;;23.35;12.50;;;;;;;17.20;77.74;101140.09;5114540;27;20059;-71
2022/05/27 00:09:20;;;;;;;22.38;11.77;;;;;;;17.21;77.36;101144.44;5125141;27;20451;-71
2022/05/27 00:11:47;;;;;;;22.35;11.88;;;;;;;16.90;79.11;101137.00;5111710;27;20093;-71
2022/05/27 00:14:13;;;;;;;19.63;12.82;;;;;;;16.93;79.61;101129.69;5103043;27;20051;-71
2022/05/27 00:16:39;;;;;;;21.52;12.40;;;;;;;17.07;78.95;101123.41;5104548;27;20110;-70
2022/05/27 00:19:06;;;;;;;19.15;12.15;;;;;;;16.99;79.21;101112.53;5104638;27;20097;-70
2022/05/27 00:21:33;;;;;;;18.90;12.20;;;;;;;16.74;80.13;101115.25;5106834;28;20044;-70
2022/05/27 00:24:00;;;;;;;24.98;12.85;;;;;;;16.79;80.40;101107.78;5103961;28;21029;-69
2022/05/27 00:26:27;;;;;;;19.20;12.95;;;;;;;17.07;79.28;101096.06;5102954;27;20054;-70
2022/05/27 00:28:53;;;;;;;22.13;12.30;;;;;;;16.74;80.75;101107.28;5105880;27;20449;-69
2022/05/27 00:31:20;;;;;;;21.52;12.73;;;;;;;16.87;79.96;101102.81;5108009;27;20042;-70
2022/05/27 00:33:47;;;;;;;21.00;12.63;;;;;;;16.81;80.54;101105.91;5106933;27;20047;-70
2022/05/27 00:36:14;;;;;;;20.50;12.65;;;;;;;16.69;81.31;101107.63;5086898;28;20484;-70
2022/05/27 00:38:43;;;;;;;20.17;12.13;;;;;;;16.59;81.86;101095.16;5114540;27;20057;-70
2022/05/27 00:41:11;;;;;;;18.13;11.68;;;;;;;16.67;81.61;101088.31;5118215;27;20116;-70
2022/05/27 00:43:38;;;;;;;18.00;11.77;;;;;;;16.44;82.42;101079.34;5106137;28;20507;-70
2022/05/27 00:46:06;;;;;;;17.77;11.43;;;;;;;16.42;82.68;101091.00;5103194;27;20125;-70
2022/05/27 00:48:37;;;;;;;15.85;11.40;;;;;;;16.30;82.92;101081.25;5106717;28;20043;-70
2022/05/27 00:51:07;;;;;;;17.13;10.52;;;;;;;16.33;83.11;101087.19;5104211;27;20067;-68
2022/05/27 00:53:39;;;;;;;15.55;10.52;;;;;;;16.36;82.75;101072.91;5106084;27;20044;-70
2022/05/27 00:56:10;;;;;;;20.38;11.38;;;;;;;16.48;81.62;101070.22;5105109;27;20411;-69
2022/05/27 00:58:41;;;;;;;14.05;9.88;;;;;;;16.63;81.56;101064.84;5105274;28;20047;-69
2022/05/27 01:01:07;;;;;;;15.38;9.05;;;;;;;16.59;81.16;101066.03;5104423;27;20100;-69
2022/05/27 01:03:35;;;;;;;14.05;8.48;;;;;;;16.55;81.18;101063.53;5106186;27;20100;-69
2022/05/27 01:06:01;;;;;;;11.50;8.90;;;;;;;16.41;81.73;101076.91;5105535;28;20048;-70
2022/05/27 01:08:29;;;;;;;12.38;8.50;;;;;;;16.53;80.73;101059.31;5105304;27;20039;-70
2022/05/27 01:11:08;;;;;;;14.07;8.75;;;;;;;16.18;82.88;101077.69;5104155;27;20074;-70
2022/05/27 01:13:48;;;;;;;11.23;8.30;;;;;;;16.24;82.75;101074.63;5104932;27;20039;-70
2022/05/27 01:16:27;;;;;;;16.67;8.85;;;;;;;16.34;81.97;101065.06;5103782;28;20039;-70
2022/05/27 01:22:37;;;;;;;13.05;8.00;;;;;;;16.45;80.92;101066.94;5091248;28;20050;-70
2022/05/27 01:25:24;;;;;;;12.45;8.68;;;;;;;16.26;82.33;101056.81;5105034;27;20565;-70
2022/05/27 01:28:21;;;;;;;12.32;8.52;;;;;;;16.56;81.56;101056.47;5099112;27;20516;-70
2022/05/27 01:30:51;;;;;;;14.13;8.73;;;;;;;16.57;81.15;101055.53;5105047;27;20100;-70
2022/05/27 01:33:32;;;;;;;11.60;9.02;;;;;;;16.76;80.81;101049.75;5104125;28;20419;-70
2022/05/27 01:36:09;;;;;;;14.98;9.05;;;;;;;16.78;80.50;101053.13;5106501;28;20036;-70
2022/05/27 01:38:40;;;;;;;14.10;9.10;;;;;;;16.66;80.76;101043.44;5106678;27;20054;-70
2022/05/27 01:41:11;;;;;;;11.95;8.98;;;;;;;16.86;80.43;101050.78;5123786;27;20039;-70
2022/05/27 01:43:41;;;;;;;10.93;8.60;;;;;;;17.03;79.53;101053.06;5121373;27;20053;-70
2022/05/27 01:46:14;;;;;;;13.80;8.88;;;;;;;17.00;78.85;101048.81;5105589;27;20129;-70
2022/05/27 01:48:52;;;;;;;13.75;9.48;;;;;;;16.95;80.00;101045.66;5104826;28;20059;-70
2022/05/27 01:51:24;;;;;;;15.25;8.80;;;;;;;16.82;80.02;101049.31;5105624;28;20043;-70
2022/05/27 01:53:58;;;;;;;11.73;9.15;;;;;;;16.41;81.84;101050.44;5106213;27;20176;-70
2022/05/27 01:56:29;;;;;;;19.92;9.23;;;;;;;16.29;82.12;101040.75;5101504;27;20160;-69
2022/05/27 01:58:59;;;;;;;11.88;9.00;;;;;;;16.45;81.56;101041.34;5103521;27;20101;-70
2022/05/27 02:01:31;;;;;;;10.90;8.75;;;;;;;16.66;80.64;101030.22;5120922;27;20092;-70
2022/05/27 02:04:01;;;;;;;;;;;;;;;16.78;80.55;101031.94;5120870;27;20411;-75
2022/05/27 02:06:31;;;;;;;14.60;9.05;;;;;;;16.91;79.58;101030.97;5105406;28;19924;-70
2022/05/27 02:09:03;;;;;;;14.30;9.00;;;;;;;17.11;78.93;101032.13;5114791;27;20108;-69
2022/05/27 02:11:30;;;;;;;12.93;8.27;;;;;;;17.02;78.78;101028.38;5104262;28;20047;-70
2022/05/27 02:14:03;;;;;;;17.13;8.60;;;;;;;17.18;77.92;101038.69;5103365;28;20043;-69
2022/05/27 02:16:36;;;;;;;14.90;8.60;;;;;;;17.04;78.13;101030.88;5104839;28;20089;-68
2022/05/27 02:19:07;;;;;;;12.60;8.05;;;;;;;16.66;80.62;101022.25;5104398;28;20085;-68
2022/05/27 02:21:39;;;;;;;12.52;8.68;;;;;;;16.97;79.15;101025.19;5103984;28;20044;-68
2022/05/27 02:24:11;;;;;;;16.10;8.35;;;;;;;17.17;78.46;101012.28;5103017;28;20185;-68
2022/05/27 02:26:41;;;;;;;17.30;8.77;;;;;;;17.25;78.11;101013.41;5099160;27;20051;-68
2022/05/27 02:29:12;;;;;;;15.15;8.32;;;;;;;17.07;78.96;101008.63;5104628;27;20108;-68
2022/05/27 02:31:44;;;;;;;11.68;8.30;;;;;;;17.06;79.12;101009.59;5107705;28;20047;-68
2022/05/27 02:37:05;;;;;;;13.27;8.52;;;;;;;17.19;78.59;101010.34;5077174;27;20442;-69
2022/05/27 02:39:33;;;;;;;15.18;8.68;;;;;;;17.22;78.44;101010.97;5095586;28;20044;-69
2022/05/27 02:42:06;;;;;;;21.60;8.77;;;;;;;17.16;78.68;101008.78;5108412;28;20043;-69
2022/05/27 02:44:39;;;;;;;12.20;8.40;;;;;;;17.27;78.06;101007.97;5106950;28;20090;-69
2022/05/27 02:47:15;;;;;;;12.23;8.68;;;;;;;17.18;78.71;101008.69;5106916;27;20071;-69
2022/05/27 02:49:55;;;;;;;13.10;8.95;;;;;;;17.38;77.47;101014.16;5106908;28;20059;-69
2022/05/27 02:52:31;;;;;;;9.35;7.75;;;;;;;17.24;77.97;101014.38;5108171;27;20126;-69
2022/05/27 02:55:08;;;;;;;11.02;8.57;;;;;;;17.18;78.48;100998.94;5107144;27;20047;-69
2022/05/27 02:57:41;;;;;;;15.20;7.82;;;;;;;17.02;79.26;101001.03;5102992;27;20112;-70
2022/05/27 03:00:10;;;;;;;13.23;8.02;;;;;;;16.95;80.08;100999.78;5107073;27;20095;-70
2022/05/27 03:02:38;;;;;;;10.82;8.32;;;;;;;16.72;81.11;100996.19;5108372;27;20046;-69
2022/05/27 03:05:05;;;;;;;11.27;8.02;;;;;;;16.73;81.53;100989.09;5106305;28;20468;-69
2022/05/27 03:07:57;;;;;;;10.38;7.47;;;;;;;16.82;81.52;100991.03;5107309;28;20560;-69
2022/05/27 03:10:34;;;;;;;13.33;7.87;;;;;;;16.67;82.16;100989.50;5106646;28;20044;-69
2022/05/27 03:13:14;;;;;;;13.32;8.45;;;;;;;16.61;82.29;100995.25;5106810;28;20477;-69
2022/05/27 03:15:54;;;;;;;11.02;7.47;;;;;;;16.74;81.83;100988.13;5108470;28;20040;-69
2022/05/27 03:18:33;;;;;;;12.35;7.22;;;;;;;16.34;83.69;100992.75;5108151;27;20118;-69
2022/05/27 03:21:11;;;;;;;9.85;7.05;;;;;;;16.19;84.91;100981.47;5107325;27;20108;-69
2022/05/27 03:23:53;;;;;;;11.38;7.60;;;;;;;16.13;85.30;100983.72;5108406;27;20088;-69
2022/05/27 03:26:31;;;;;;;11.23;7.35;;;;;;;16.17;85.41;100975.47;5101983;27;20044;-69
2022/05/27 03:29:09;;;;;;;11.63;7.85;;;;;;;16.26;85.46;100988.03;5099259;27;20147;-69
2022/05/27 03:31:39;;;;;;;13.45;8.05;;;;;;;16.37;84.88;100985.44;5107607;27;20074;-69
2022/05/27 03:34:15;;;;;;;12.27;8.68;;;;;;;16.42;85.17;100982.47;5107607;27;20461;-69
2022/05/27 03:36:49;;;;;;;14.00;7.60;;;;;;;16.16;86.35;100991.44;5107994;27;20048;-69
2022/05/27 03:39:22;;;;;;;10.55;7.25;;;;;;;16.27;86.50;100984.44;5105675;27;20580;-69
2022/05/27 03:41:52;;;;;;;11.93;7.97;;;;;;;15.98;87.86;100988.28;5105862;27;20047;-69
2022/05/27 03:44:22;;;;;;;12.63;8.88;;;;;;;15.88;88.48;100974.88;5104554;27;20052;-69
2022/05/27 03:46:51;;;;;;;13.48;7.25;;;;;;;15.78;89.50;100975.63;5106929;27;20052;-70
2022/05/27 03:49:18;;;;;;;14.10;8.15;;;;;;;15.80;89.88;100973.72;5107291;28;20579;-70
2022/05/27 03:51:53;;;;;;;8.15;6.55;;;;;;;15.99;88.43;100974.13;5105313;28;20089;-70
2022/05/27 03:54:21;;;;;;;11.60;6.13;;;;;;;16.03;88.57;101002.91;5105232;28;20104;-70
2022/05/27 03:56:47;;;;;;;11.88;7.03;;;;;;;15.90;89.14;101001.19;5102774;27;20173;-69
2022/05/27 03:59:15;;;;;;;10.93;6.18;;;;;;;15.82;90.04;101019.38;5105050;27;20116;-69
2022/05/27 04:01:46;;;;;;;8.88;5.65;;;;;;;15.45;91.62;101027.16;5122621;27;20071;-70
2022/05/27 04:04:15;;;;;;;5.43;2.28;;;;;;;15.16;89.65;101033.53;5125160;27;20043;-70
2022/05/27 04:06:46;;;;;;;5.47;2.40;;;;;;;15.24;88.60;101057.66;5119568;27;20055;-70
2022/05/27 04:09:12;;;;;;;9.15;2.97;;;;;;;14.91;89.37;101057.22;5122735;27;20039;-69
2022/05/27 04:11:39;;;;;;;4.45;1.80;;;;;;;14.57;84.36;101066.44;5109951;27;20071;-70
2022/05/27 04:14:05;;;;;;;4.00;2.13;;;;;;;14.53;84.20;101076.31;5110105;27;20078;-70
2022/05/27 04:16:32;;;;;;;4.82;2.22;;;;;;;14.53;84.58;101063.13;5113553;27;20047;-70
2022/05/27 04:18:58;;;;;;;7.93;2.22;;;;;;;14.77;82.99;101070.44;5107221;27;20078;-70
2022/05/27 04:21:25;;;;;;;4.45;1.90;;;;;;;14.43;81.95;101072.56;5104887;27;20484;-70
2022/05/27 04:23:54;;;;;;;5.65;2.00;;;;;;;14.52;82.74;101077.25;5102742;27;20092;-70
2022/05/27 04:26:21;;;;;;;8.88;2.00;;;;;;;14.80;81.25;101079.03;5104875;28;20044;-70
2022/05/27 04:28:47;;;;;;;4.28;2.13;;;;;;;14.90;80.71;101079.28;5108752;27;20063;-70
2022/05/27 04:31:14;;;;;;;7.15;2.10;;;;;;;14.90;80.32;101087.19;5123981;27;20066;-70
2022/05/27 04:33:41;;;;;;;6.18;1.95;;;;;;;14.70;80.60;101079.72;5111390;27;20396;-70
2022/05/27 04:36:08;;;;;;;4.68;2.20;;;;;;;14.67;81.24;101072.81;5112084;27;20046;-70
2022/05/27 04:38:36;;;;;;;3.28;1.83;;;;;;;14.58;80.50;101068.13;5116324;27;20058;-70
2022/05/27 04:41:04;;;;;;;5.15;2.10;;;;;;;14.55;81.12;101069.19;5104450;27;20108;-70
2022/05/27 04:43:30;;;;;;;4.45;2.20;;;;;;;14.85;79.27;101062.91;5106795;27;20074;-70
2022/05/27 04:45:57;;;;;;;4.60;2.10;;;;;;;14.74;79.96;101062.72;5086170;28;20450;-70
2022/05/27 04:48:24;;;;;;;5.30;2.30;;;;;;;14.55;81.31;101068.31;5111939;27;20391;-70
2022/05/27 04:50:51;;;;;;;5.45;2.17;;;;;;;14.75;81.21;101073.19;5126575;27;20400;-70
2022/05/27 04:53:18;;;;;;;3.95;2.08;;;;;;;14.45;82.16;101064.53;5126196;27;20051;-70
2022/05/27 04:55:44;;;;;;;4.07;2.08;;;;;;;14.44;81.01;101053.16;5107554;27;20075;-70
2022/05/27 04:58:12;;;;;;;5.32;2.03;;;;;;;14.65;81.06;101056.25;5107620;27;20073;-71
2022/05/27 05:03:28;;;;;;;3.70;1.77;;;;;;;14.80;78.86;101042.06;5108230;27;20495;-71
2022/05/27 05:05:54;;;;;;;5.68;2.00;;;;;;;14.91;78.81;101041.38;5105265;27;20043;-70
2022/05/27 05:08:28;;;;;;;3.97;1.73;;;;;;;14.94;79.27;101043.81;5115392;27;20470;-70
2022/05/27 05:10:54;;;;;;;4.53;1.80;;;;;;;15.32;76.85;101036.88;5108794;27;20678;-70
2022/05/27 05:13:22;;;;;;;3.15;1.73;;;;;;;15.13;77.15;101039.03;5106715;27;20100;-70
2022/05/27 05:15:48;;;;;;;7.53;2.55;;;;;;;15.17;77.22;101047.59;5120124;27;20043;-71
2022/05/27 05:18:15;;;;;;;5.55;1.92;;;;;;;15.21;77.55;101047.28;5114929;27;20085;-70
2022/05/27 05:20:41;;;;;;;4.50;2.08;;;;;;;14.93;79.03;101048.22;5105156;28;20040;-70
2022/05/27 05:23:07;;;;;;;5.10;2.00;;;;;;;15.31;77.77;101063.38;5109229;27;20043;-70
2022/05/27 05:25:34;;;;;;;6.70;3.28;;;;;;;15.38;77.28;101072.59;5110275;27;20047;-70
2022/05/27 05:28:01;;;;;;;3.42;1.90;;;;;;;15.08;79.06;101071.00;5108814;27;20052;-70
2022/05/27 05:30:29;;;;;;;5.65;2.00;;;;;;;15.50;77.06;101072.66;5103870;27;20419;-70
2022/05/27 05:32:55;;;;;;;3.10;1.80;;;;;;;15.27;78.10;101065.38;5104863;27;20096;-71
2022/05/27 05:35:23;;;;;;;4.30;1.88;;;;;;;15.44;77.93;101067.75;5123157;27;20047;-70
2022/05/27 05:37:50;;;;;;;3.85;1.95;;;;;;;15.51;76.83;101068.22;5118899;27;20044;-71
2022/05/27 05:40:17;;;;;;;3.97;1.83;;;;;;;15.53;77.40;101061.88;5114315;27;20147;-70
2022/05/27 05:42:46;;;;;;;5.22;2.10;;;;;;;15.37;78.31;101071.72;5111436;27;20120;-70
2022/05/27 05:45:15;;;;;;;4.07;1.83;;;;;;;15.58;77.35;101077.44;5103390;27;20043;-70
2022/05/27 05:47:43;;;;;;;2.58;1.90;;;;;;;15.45;78.50;101074.72;5103717;28;20043;-70
2022/05/27 05:50:10;;;;;;;3.92;2.00;;;;;;;15.46;78.62;101071.13;5104955;28;20415;-70
2022/05/27 05:52:36;;;;;;;5.07;2.15;;;;;;;15.52;79.14;101067.28;5103874;28;20040;-70
2022/05/27 05:55:04;;;;;;;7.57;1.80;;;;;;;15.16;80.21;101077.59;5106244;28;20073;-70
2022/05/27 05:57:31;;;;;;;5.22;2.08;;;;;;;15.23;80.92;101077.09;5111677;27;20043;-70
2022/05/27 05:59:59;;;;;;;5.32;1.92;;;;;;;15.28;80.16;101080.28;5109040;27;20589;-70
2022/05/27 06:02:26;;;;;;;5.32;2.28;;;;;;;15.35;80.99;101076.28;5124211;27;20043;-70
2022/05/27 06:04:54;;;;;;;5.35;2.38;;;;;;;15.47;81.01;101086.06;5125778;27;20407;-70
2022/05/27 06:07:21;;;;;;;7.57;2.55;;;;;;;15.59;81.20;101079.13;5109798;27;20047;-70
2022/05/27 06:09:47;;;;;;;4.18;2.53;;;;;;;15.69;80.52;101082.00;5124829;27;20096;-70
2022/05/27 06:12:16;;;;;;;5.40;3.20;;;;;;;15.46;80.87;101081.69;5111322;27;20067;-69
2022/05/27 06:14:43;;;;;;;7.20;3.60;;;;;;;15.89;80.24;101079.69;5116480;27;20051;-70
2022/05/27 06:17:09;;;;;;;7.53;2.63;;;;;;;16.19;77.35;101078.50;5129095;27;20107;-70
2022/05/27 06:19:36;;;;;;;10.75;3.20;;;;;;;16.23;78.26;101074.72;5111955;27;20116;-70
2022/05/27 06:22:13;;;;;;;5.25;2.75;;;;;;;15.95;78.65;101078.44;5129809;27;20043;-70
2022/05/27 06:24:39;;;;;;;5.93;2.92;;;;;;;15.91;79.66;101082.22;5133751;27;21803;-70
2022/05/27 06:27:07;;;;;;;6.22;3.10;;;;;;;16.22;78.62;101091.56;5105412;27;20073;-70
2022/05/27 06:35:02;;;;;;;5.05;3.05;;;;;;;16.17;77.16;101097.16;5121121;27;20054;-70
2022/05/27 06:37:29;;;;;;;6.68;3.10;;;;;;;16.34;77.91;101086.25;5128566;27;20081;-70
2022/05/27 06:39:57;;;;;;;7.82;3.45;;;;;;;16.96;77.85;101088.91;5108152;27;20051;-70
2022/05/27 06:42:23;;;;;;;12.60;3.08;;;;;;;17.08;75.16;101090.63;5111143;27;20104;-70
2022/05/27 06:44:50;;;;;;;6.13;2.88;;;;;;;17.35;72.26;101093.91;5110810;27;20103;-70
2022/05/27 06:47:17;;;;;;;8.00;2.90;;;;;;;17.49;73.04;101090.22;5108204;27;20156;-70
2022/05/27 06:49:44;;;;;;;5.35;2.53;;;;;;;16.98;72.48;101081.69;5130319;27;20099;-69
2022/05/27 06:52:13;;;;;;;5.85;2.60;;;;;;;17.35;69.65;101085.97;5130439;27;20537;-69
2022/05/27 06:54:41;;;;;;;5.95;2.72;;;;;;;17.50;71.89;101090.13;5118244;27;20079;-68
2022/05/27 06:57:08;;;;;;;5.10;2.88;;;;;;;17.82;69.44;101090.38;5103622;27;20043;-68
2022/05/27 06:59:35;;;;;;;5.60;2.40;;;;;;;18.56;67.97;101098.78;5118775;27;20571;-69
2022/05/27 07:02:02;;;;;;;8.20;2.47;;;;;;;19.00;66.20;101101.38;5130856;27;20043;-69
2022/05/27 07:04:28;;;;;;;7.32;2.28;;;;;;;18.83;63.83;101097.44;5119888;27;20407;-69
2022/05/27 07:06:57;;;;;;;6.63;2.55;;;;;;;18.77;64.76;101089.94;5109322;28;20059;-69
2022/05/27 07:09:24;;;;;;;9.23;2.50;;;;;;;19.15;62.62;101107.28;5116832;27;20511;-69
2022/05/27 07:11:55;;;;;;;7.40;2.30;;;;;;;18.73;62.06;101103.63;5117057;27;20100;-68
2022/05/27 07:14:21;;;;;;;12.77;3.65;;;;;;;18.65;62.69;101106.91;5127982;27;20483;-68
2022/05/27 07:16:48;;;;;;;5.78;1.90;;;;;;;19.09;59.81;101105.97;5115967;27;20115;-70
2022/05/27 07:19:17;;;;;;;7.43;2.22;;;;;;;19.55;61.80;101100.38;5106728;27;20040;-70
2022/05/27 07:21:45;;;;;;;7.97;2.85;;;;;;;20.28;58.02;101103.03;5108581;27;20055;-70
2022/05/27 07:24:13;;;;;;;8.13;2.42;;;;;;;20.42;56.53;101096.47;5110349;27;20069;-70
2022/05/27 07:26:41;;;;;;;7.53;2.53;;;;;;;20.75;57.14;101103.34;5113216;27;20047;-69
2022/05/27 07:29:09;;;;;;;8.50;2.60;;;;;;;20.59;59.38;101113.66;5141372;27;20068;-69
2022/05/27 07:31:37;;;;;;;6.55;2.13;;;;;;;20.68;56.02;101104.84;5142436;27;20089;-70
2022/05/27 07:34:04;;;;;;;9.32;2.60;;;;;;;21.05;51.45;101102.44;5126014;27;20039;-70
2022/05/27 07:36:31;;;;;;;6.15;2.05;;;;;;;21.02;52.67;101100.88;5111222;28;20043;-70
2022/05/27 07:38:57;;;;;;;10.52;2.13;;;;;;;20.75;49.66;101100.66;5115530;27;20107;-70
2022/05/27 07:41:27;;;;;;;6.90;2.45;;;;;;;21.06;49.85;101099.63;5132124;27;20426;-70
2022/05/27 07:43:53;;;;;;;6.43;1.77;;;;;;;20.01;50.13;101108.00;5130024;27;20046;-70
2022/05/27 07:46:23;;;;;;;7.80;2.10;;;;;;;20.66;52.72;101098.81;5118896;27;20044;-70
2022/05/27 07:48:50;;;;;;;5.88;2.25;;;;;;;21.08;51.18;101081.66;5115165;27;20116;-74
2022/05/27 07:51:16;;;;;;;8.13;2.30;;;;;;;21.29;51.77;101100.22;5129691;27;20043;-71
2022/05/27 07:53:42;;;;;;;9.25;2.25;;;;;;;20.65;50.89;101094.47;5127306;27;20051;-71
2022/05/27 07:56:10;;;;;;;8.13;2.00;;;;;;;21.44;52.04;101098.00;5122318;27;20701;-71
2022/05/27 07:58:37;;;;;;;5.47;2.17;;;;;;;21.72;50.87;101113.19;5108436;27;20059;-71
2022/05/27 08:01:05;;;;;;;7.18;2.50;;;;;;;21.82;46.43;101090.81;5126548;27;20061;-71
2022/05/27 08:03:32;;;;;;;10.48;2.28;;;;;;;22.35;46.49;101100.13;5129765;27;20115;-71
2022/05/27 08:06:00;;;;;;;7.47;2.28;;;;;;;22.69;45.58;101093.25;5109255;27;20508;-71
2022/05/27 08:08:29;;;;;;;6.80;2.05;;;;;;;21.39;46.61;101089.59;5120020;27;20097;-71
2022/05/27 08:10:55;;;;;;;7.78;2.13;;;;;;;21.27;48.06;101097.72;5109237;27;20047;-70
2022/05/27 08:13:22;;;;;;;8.20;2.00;;;;;;;20.75;47.70;101087.34;5106814;28;20495;-71
2022/05/27 08:15:48;;;;;;;10.07;2.42;;;;;;;21.18;51.06;101106.53;5107218;28;20055;-71
2022/05/27 08:18:15;;;;;;;8.45;1.65;;;;;;;21.63;47.61;101100.66;5108694;28;20097;-71
2022/05/27 08:20:43;;;;;;;6.85;2.28;;;;;;;21.23;47.95;101100.81;5107022;27;20043;-71
2022/05/27 08:23:09;;;;;;;6.10;1.65;;;;;;;21.17;48.13;101101.38;5107982;27;20510;-71
2022/05/27 08:25:37;;;;;;;6.03;1.73;;;;;;;20.75;47.02;101090.84;5107390;27;20503;-71
2022/05/27 08:28:04;;;;;;;8.02;2.33;;;;;;;20.67;47.27;101092.50;5103986;27;20039;-70
2022/05/27 08:30:33;;;;;;;7.05;1.85;;;;;;;20.97;48.29;101089.78;5105613;28;20047;-71
2022/05/27 08:33:01;;;;;;;9.50;2.22;;;;;;;21.02;46.11;101094.72;5109421;27;20448;-71
2022/05/27 08:38:20;;;;;;;8.18;2.22;;;;;;;20.81;46.40;101090.31;5106957;27;20121;-71
2022/05/27 08:41:04;;;;;;;6.90;2.17;;;;;;;21.00;45.12;101092.16;5116128;27;20774;-70
2022/05/27 08:43:37;;;;;;;9.43;2.63;;;;;;;21.08;44.32;101099.47;5126972;27;20054;-70
2022/05/27 08:46:11;;;;;;;4.55;1.60;;;;;;;21.63;45.19;101101.50;5128510;27;20047;-71
2022/05/27 08:48:42;;;;;;;7.20;1.85;;;;;;;21.85;43.85;101097.69;5126630;27;20174;-71
2022/05/27 08:51:16;;;;;;;5.93;1.95;;;;;;;22.71;43.20;101091.28;5104089;27;20099;-71
2022/05/27 08:53:49;;;;;;;10.02;1.98;;;;;;;22.68;42.47;101092.44;5105141;28;20059;-71
2022/05/27 08:59:31;;;;;;;9.82;2.47;;;;;;;22.40;43.77;101097.84;5098272;27;20276;-70
2022/05/27 09:02:04;;;;;;;9.40;2.10;;;;;;;22.72;42.23;101098.31;5083934;28;20066;-70
2022/05/27 09:04:37;;;;;;;6.43;1.90;;;;;;;22.73;41.81;101095.47;5086061;28;20048;-71
2022/05/27 09:07:11;;;;;;;7.05;1.98;;;;;;;22.26;43.36;101104.50;5103422;28;20043;-71
2022/05/27 09:09:39;;;;;;;7.20;1.80;;;;;;;22.40;44.59;101092.50;5109015;27;20047;-71
2022/05/27 09:12:24;;;;;;;9.77;2.00;;;;;;;22.58;41.08;101096.13;5124737;27;20078;-71
2022/05/27 09:15:11;;;;;;;7.72;2.03;;;;;;;22.20;42.94;101092.59;5126009;27;20067;-70
2022/05/27 09:17:44;;;;;;;8.15;2.17;;;;;;;21.32;43.20;101098.13;5125094;27;20047;-71
2022/05/27 09:20:23;;;;;;;16.83;3.10;;;;;;;20.30;45.25;101093.06;5111903;27;20460;-71
2022/05/27 09:23:01;;;;;;;7.22;1.98;;;;;;;19.70;47.70;101111.56;5085659;28;20411;-71
2022/05/27 09:25:38;;;;;;;8.68;2.50;;;;;;;20.38;45.31;101100.38;5090384;27;20040;-71
2022/05/27 09:28:12;;;;;;;5.32;1.73;;;;;;;20.76;43.63;101086.38;5100535;27;20108;-71
2022/05/27 09:30:39;;;;;;;6.25;2.10;;;;;;;21.41;44.90;101091.13;5105591;28;20091;-70
2022/05/27 09:33:09;;;;;;;5.80;2.45;;;;;;;21.78;45.56;101123.28;5107406;27;20039;-72
2022/05/27 09:35:42;;;;;;;9.55;2.00;;;;;;;21.56;41.36;101118.22;5115212;27;20036;-74
2022/05/27 09:38:14;;;;;;;6.07;1.98;;;;;;;21.71;42.13;101116.81;5101745;27;20481;-72
2022/05/27 09:40:48;;;;;;;6.78;2.00;;;;;;;21.62;40.40;101097.16;5110827;27;20063;-71
2022/05/27 09:43:22;;;;;;;10.38;2.10;;;;;;;20.92;41.05;101108.00;5107080;27;20051;-71
2022/05/27 09:45:52;;;;;;;6.57;1.90;;;;;;;20.31;41.60;101107.22;5108629;27;20146;-72
2022/05/27 09:48:24;;;;;;;7.30;2.15;;;;;;;20.68;41.96;101097.72;5103498;28;20688;-72
2022/05/27 09:50:50;;;;;;;6.35;1.90;;;;;;;21.27;41.54;101091.53;5102331;28;20396;-72
2022/05/27 09:53:21;;;;;;;10.02;2.08;;;;;;;21.64;42.19;101094.34;5105713;28;20125;-71
2022/05/27 09:55:54;;;;;;;8.45;2.30;;;;;;;22.04;42.59;101092.34;5104418;27;20052;-71
2022/05/27 09:58:25;;;;;;;6.07;1.65;;;;;;;22.45;40.58;101090.25;5103905;27;20144;-71
2022/05/27 10:00:52;;;;;;;9.00;2.10;;;;;;;21.94;39.08;101088.88;5117496;27;20047;-71
2022/05/27 10:03:28;;;;;;;3.90;1.60;;;;;;;21.42;39.93;101079.47;5109709;27;20039;-71
2022/05/27 10:06:00;;;;;;;7.90;1.90;;;;;;;21.63;37.85;101084.66;5103492;28;20059;-72
2022/05/27 10:08:32;;;;;;;5.20;1.92;;;;;;;21.70;39.01;101083.94;5116324;27;20456;-72
2022/05/27 10:11:28;;;;;;;11.35;1.73;;;;;;;21.61;40.24;101094.63;5122481;27;20564;-73
2022/05/27 10:14:20;;;;;;;4.88;2.08;;;;;;;21.93;38.11;101078.31;5100197;27;20117;-72
2022/05/27 10:17:01;;;;;;;;;;;;;;;21.28;36.74;101059.41;5106155;28;20059;-71
2022/05/27 10:19:28;;;;;;;7.20;2.00;;;;;;;21.65;38.67;101064.03;5083547;28;19928;-71
2022/05/27 10:21:57;;;;;;;6.18;2.17;;;;;;;22.18;38.17;101083.88;5083534;28;20148;-70
2022/05/27 10:24:27;;;;;;;6.60;2.25;;;;;;;22.46;38.37;101071.41;5083016;28;20048;-72
2022/05/27 10:27:07;;;;;;;9.73;1.88;;;;;;;23.22;36.75;101067.44;5096585;27;20069;-75
2022/05/27 10:29:35;;;;;;;8.38;2.03;;;;;;;22.77;35.88;101064.78;5101937;27;20500;-72
2022/05/27 10:32:02;;;;;;;5.97;1.80;;;;;;;22.36;35.28;101062.56;5105037;28;25621;-72
2022/05/27 10:34:43;;;;;;;6.75;2.20;;;;;;;22.63;38.60;101073.28;5104069;28;20036;-73
2022/05/27 10:37:22;;;;;;;7.00;2.10;;;;;;;22.15;35.47;101068.13;5103558;28;20067;-72
2022/05/27 10:40:01;;;;;;;7.82;2.28;;;;;;;22.50;36.09;101058.59;5123965;27;20062;-70
2022/05/27 10:42:41;;;;;;;8.80;2.10;;;;;;;21.77;34.84;101066.38;5100812;28;20071;-70
2022/05/27 10:45:17;;;;;;;5.28;1.48;;;;;;;22.00;38.05;101053.56;5103809;28;21134;-70
2022/05/27 10:48:05;;;;;;;7.95;1.90;;;;;;;22.03;34.93;101063.09;5100910;28;20491;-71
2022/05/27 10:50:37;;;;;;;9.60;2.85;;;;;;;21.65;36.56;101051.53;5104234;27;20043;-70
2022/05/27 10:53:17;;;;;;;7.80;2.20;;;;;;;20.56;35.60;101053.50;5126232;27;20035;-71
2022/05/27 10:55:57;;;;;;;9.57;1.85;;;;;;;20.91;37.39;101053.03;5124969;27;20051;-71
2022/05/27 11:04:41;;;;;;;8.43;2.60;;;;;;;21.57;37.75;101034.53;5042895;28;20521;-70
2022/05/27 11:07:22;;;;;;;4.63;1.65;;;;;;;21.97;34.71;101031.66;5101186;27;20054;-70
2022/05/27 11:10:02;;;;;;;5.50;2.20;;;;;;;22.14;37.04;101045.09;5107386;27;20044;-71
2022/05/27 11:15:30;;;;;;;6.25;1.80;;;;;;;23.13;34.20;101044.25;5107851;27;20047;-71
2022/05/27 11:18:07;;;;;;;4.05;1.33;;;;;;;22.87;33.56;101047.84;5107294;27;20092;-71
2022/05/27 11:20:54;;;;;;;6.07;2.08;;;;;;;23.13;36.32;101049.59;5107167;28;20084;-71
2022/05/27 11:23:55;;;;;;;6.78;1.58;;;;;;;23.12;34.72;101036.41;5105880;27;20448;-72
2022/05/27 11:26:27;;;;;;;4.95;1.85;;;;;;;22.64;32.92;101023.34;5098075;27;20097;-70
2022/05/27 11:29:07;;;;;;;7.22;2.10;;;;;;;21.10;33.44;101031.69;5116330;27;20079;-72
2022/05/27 11:31:48;;;;;;;5.07;2.10;;;;;;;20.36;34.43;101035.78;5088475;28;20726;-72
2022/05/27 11:34:26;;;;;;;11.98;1.85;;;;;;;19.96;36.33;101056.13;5090310;28;20156;-71
2022/05/27 11:37:22;;;;;;;5.22;2.03;;;;;;;19.71;35.09;101044.06;5084908;28;20532;-72
2022/05/27 11:40:14;;;;;;;5.82;1.77;;;;;;;19.23;36.38;101038.38;5087085;28;20044;-71
2022/05/27 11:43:01;;;;;;;6.53;1.77;;;;;;;19.11;39.25;101048.19;5118122;27;20039;-71
2022/05/27 11:45:29;;;;;;;6.75;1.90;;;;;;;19.14;39.40;101044.47;5127708;27;20070;-73
2022/05/27 11:48:08;;;;;;;4.82;1.75;;;;;;;19.30;38.86;101035.06;5121179;27;20099;-70
2022/05/27 11:50:59;;;;;;;8.02;1.92;;;;;;;18.92;41.14;101055.97;5102075;27;20047;-72
2022/05/27 11:53:54;;;;;;;8.27;2.10;;;;;;;19.09;43.34;101058.13;5108379;27;20088;-71
2022/05/27 11:56:34;;;;;;;5.82;2.08;;;;;;;19.74;43.53;101047.31;5106770;27;20073;-72
2022/05/27 11:59:04;;;;;;;7.53;1.80;;;;;;;20.31;43.18;101048.63;5103816;27;20083;-70
2022/05/27 12:01:36;;;;;;;6.18;1.80;;;;;;;20.91;42.28;101041.50;5109290;27;20039;-72
2022/05/27 12:04:11;;;;;;;7.13;1.90;;;;;;;21.01;40.96;101027.22;5109310;27;20039;-73
2022/05/27 12:06:44;;;;;;;5.45;1.98;;;;;;;21.27;40.57;101030.19;5107432;28;20052;-73
2022/05/27 12:09:25;;;;;;;9.15;2.00;;;;;;;21.60;42.63;101020.91;5122146;27;20088;-72
2022/05/27 12:12:00;;;;;;;5.18;1.60;;;;;;;21.39;38.40;101021.06;5114748;27;20048;-73